Time;durP1;ratioP1;P1;durP2;ratioP2;P2;SDS_P1;SDS_P2;PMS_P1;PMS_P2;Temp;Humidity;BMP_temperature;BMP_pressure;BME280_temperature;BME280_humidity;BME280_pressure;Samples;Min_cycle;Max_cycle;Signal;HPM_P1;HPM_P2
2023/10/10 00:01:02;;;;;;;11.30;9.90;;;;;;;;;;5095467;28;20988;-59
2023/10/10 00:03:31;;;;;;;10.43;9.43;;;;;;;;;;5095412;28;20454;-59
2023/10/10 00:05:59;;;;;;;11.00;9.00;;;;;;;;;;5095567;28;20469;-58
2023/10/10 00:08:33;;;;;;;11.00;8.97;;;;;;;;;;5095155;28;20475;-58
2023/10/10 00:11:00;;;;;;;9.70;8.70;;;;;;;;;;5095496;28;20453;-59
2023/10/10 00:13:27;;;;;;;11.73;9.37;;;;;;;;;;5095172;28;20917;-59
2023/10/10 00:16:05;;;;;;;10.13;8.80;;;;;;;;;;5095150;28;20442;-59
2023/10/10 00:18:32;;;;;;;10.80;9.47;;;;;;;;;;5095324;28;20621;-58
2023/10/10 00:21:06;;;;;;;10.63;9.53;;;;;;;;;;5095165;28;20894;-58
2023/10/10 00:23:38;;;;;;;9.13;8.23;;;;;;;;;;5095187;28;20801;-59
2023/10/10 00:26:10;;;;;;;14.10;9.50;;;;;;;;;;5094995;28;20541;-59
2023/10/10 00:28:40;;;;;;;9.60;8.60;;;;;;;;;;5095240;28;20474;-59
2023/10/10 00:31:10;;;;;;;11.80;9.60;;;;;;;;;;5095063;28;20452;-58
2023/10/10 00:33:38;;;;;;;11.50;9.13;;;;;;;;;;5095253;28;20449;-59
2023/10/10 00:36:05;;;;;;;11.50;9.73;;;;;;;;;;5094753;28;21001;-59
2023/10/10 00:38:32;;;;;;;13.40;9.77;;;;;;;;;;5094789;28;20876;-60
2023/10/10 00:41:03;;;;;;;11.03;9.93;;;;;;;;;;5095081;28;20470;-58
2023/10/10 00:43:31;;;;;;;9.87;8.87;;;;;;;;;;5094833;28;20443;-57
2023/10/10 00:46:04;;;;;;;10.50;9.50;;;;;;;;;;5094716;28;20449;-59
2023/10/10 00:48:34;;;;;;;9.17;7.80;;;;;;;;;;5094734;28;20802;-59
2023/10/10 00:51:10;;;;;;;11.10;9.30;;;;;;;;;;5094597;28;20503;-59
2023/10/10 00:53:39;;;;;;;8.90;8.00;;;;;;;;;;5094773;28;20450;-59
2023/10/10 00:56:06;;;;;;;10.03;9.03;;;;;;;;;;5094498;28;20438;-58
2023/10/10 00:58:37;;;;;;;9.80;8.73;;;;;;;;;;5094523;28;20806;-59
2023/10/10 01:01:09;;;;;;;8.80;8.00;;;;;;;;;;5094390;28;20565;-59
2023/10/10 01:03:39;;;;;;;9.07;8.00;;;;;;;;;;5094267;28;20446;-59
2023/10/10 01:06:07;;;;;;;10.37;9.40;;;;;;;;;;5094498;28;20447;-58
2023/10/10 01:08:53;;;;;;;10.87;9.10;;;;;;;;;;5094083;28;20519;-59
2023/10/10 01:11:20;;;;;;;9.67;8.77;;;;;;;;;;5094259;28;20442;-60
2023/10/10 01:13:47;;;;;;;9.30;8.50;;;;;;;;;;5094179;28;20442;-59
2023/10/10 01:16:14;;;;;;;9.63;8.63;;;;;;;;;;5094042;28;20534;-59
2023/10/10 01:18:51;;;;;;;9.17;8.23;;;;;;;;;;5094202;28;20533;-59
2023/10/10 01:21:30;;;;;;;9.43;8.63;;;;;;;;;;5094026;28;20573;-58
2023/10/10 01:24:00;;;;;;;8.50;7.70;;;;;;;;;;5094003;28;20441;-59
2023/10/10 01:26:35;;;;;;;8.93;7.93;;;;;;;;;;5093885;28;20496;-58
2023/10/10 01:29:14;;;;;;;8.30;7.50;;;;;;;;;;5093902;28;20473;-58
2023/10/10 01:31:42;;;;;;;8.00;7.37;;;;;;;;;;5093890;28;20545;-59
2023/10/10 01:34:23;;;;;;;10.00;7.80;;;;;;;;;;5093759;28;20488;-59
2023/10/10 01:36:51;;;;;;;7.57;6.57;;;;;;;;;;5093698;28;20442;-59
2023/10/10 01:39:23;;;;;;;7.93;7.13;;;;;;;;;;5093609;28;20450;-59
2023/10/10 01:41:51;;;;;;;7.20;6.60;;;;;;;;;;5093690;28;20485;-59
2023/10/10 01:44:22;;;;;;;7.43;6.77;;;;;;;;;;5093769;28;20519;-59
2023/10/10 01:46:51;;;;;;;7.70;6.97;;;;;;;;;;5093636;28;20449;-58
2023/10/10 01:49:20;;;;;;;8.10;7.40;;;;;;;;;;5093334;28;20871;-59
2023/10/10 01:51:50;;;;;;;7.83;7.13;;;;;;;;;;5093441;28;20517;-58
2023/10/10 01:54:20;;;;;;;8.00;7.20;;;;;;;;;;5093604;28;20478;-59
2023/10/10 01:56:47;;;;;;;9.07;7.50;;;;;;;;;;5093335;28;20948;-58
2023/10/10 01:59:19;;;;;;;6.90;6.30;;;;;;;;;;5093391;28;20875;-59
2023/10/10 02:01:47;;;;;;;7.20;6.70;;;;;;;;;;5093324;28;20481;-59
2023/10/10 02:04:14;;;;;;;7.83;7.13;;;;;;;;;;5093228;28;20454;-59
2023/10/10 02:06:45;;;;;;;8.10;7.03;;;;;;;;;;5093255;28;20446;-59
2023/10/10 02:09:18;;;;;;;6.30;5.23;;;;;;;;;;5093363;28;20542;-59
2023/10/10 02:11:53;;;;;;;6.67;6.07;;;;;;;;;;5093156;28;20937;-59
2023/10/10 02:14:24;;;;;;;6.60;6.00;;;;;;;;;;5093128;28;20806;-59
2023/10/10 02:16:54;;;;;;;7.27;6.53;;;;;;;;;;5092699;28;20802;-58
2023/10/10 02:19:32;;;;;;;6.43;5.83;;;;;;;;;;5093251;28;20481;-58
2023/10/10 02:22:13;;;;;;;7.07;6.47;;;;;;;;;;5093201;28;20993;-59
2023/10/10 02:24:41;;;;;;;5.90;5.40;;;;;;;;;;5093039;28;20452;-59
2023/10/10 02:27:20;;;;;;;6.03;5.53;;;;;;;;;;5092996;28;20443;-59
2023/10/10 02:29:49;;;;;;;6.90;6.30;;;;;;;;;;5093155;28;20937;-59
2023/10/10 02:32:20;;;;;;;5.00;4.60;;;;;;;;;;5092920;28;21083;-59
2023/10/10 02:34:56;;;;;;;6.60;6.10;;;;;;;;;;5093038;28;20443;-59
2023/10/10 02:37:41;;;;;;;4.50;4.10;;;;;;;;;;5092935;28;20457;-59
2023/10/10 02:40:14;;;;;;;5.80;5.30;;;;;;;;;;5093142;28;20444;-60
2023/10/10 02:42:49;;;;;;;5.40;5.00;;;;;;;;;;5092875;28;20857;-59
2023/10/10 02:45:17;;;;;;;4.57;4.27;;;;;;;;;;5092777;28;20465;-59
2023/10/10 02:47:52;;;;;;;5.23;4.83;;;;;;;;;;5092750;28;20447;-58
2023/10/10 02:53:07;;;;;;;5.30;4.90;;;;;;;;;;5092545;28;20450;-59
2023/10/10 02:55:35;;;;;;;5.70;5.20;;;;;;;;;;5092864;28;20446;-59
2023/10/10 02:58:20;;;;;;;5.03;4.63;;;;;;;;;;5092697;28;20447;-59
2023/10/10 03:00:47;;;;;;;5.63;5.07;;;;;;;;;;5092841;28;20447;-59
2023/10/10 03:03:18;;;;;;;5.53;5.03;;;;;;;;;;5092666;28;20952;-59
2023/10/10 03:05:50;;;;;;;6.70;6.10;;;;;;;;;;5092789;28;20450;-59
2023/10/10 03:08:18;;;;;;;5.80;5.30;;;;;;;;;;5092483;28;20548;-59
2023/10/10 03:10:46;;;;;;;6.10;5.60;;;;;;;;;;5092526;28;20466;-59
2023/10/10 03:13:27;;;;;;;9.30;5.80;;;;;;;;;;5092659;28;20491;-58
2023/10/10 03:15:56;;;;;;;5.27;4.87;;;;;;;;;;5092676;28;20453;-59
2023/10/10 03:18:28;;;;;;;6.20;5.60;;;;;;;;;;5092649;28;20492;-59
2023/10/10 03:21:18;;;;;;;6.30;5.70;;;;;;;;;;5092441;28;20454;-58
2023/10/10 03:23:53;;;;;;;5.63;5.13;;;;;;;;;;5092619;28;20794;-59
2023/10/10 03:26:34;;;;;;;6.90;6.20;;;;;;;;;;5092361;28;20809;-59
2023/10/10 03:29:04;;;;;;;7.90;5.77;;;;;;;;;;5094860;28;20932;-59
2023/10/10 03:31:41;;;;;;;6.57;6.03;;;;;;;;;;5095839;28;20462;-58
2023/10/10 03:34:18;;;;;;;7.20;6.60;;;;;;;;;;5096022;28;20446;-59
2023/10/10 03:36:48;;;;;;;6.50;5.57;;;;;;;;;;5096259;28;20453;-59
2023/10/10 03:39:24;;;;;;;7.07;6.40;;;;;;;;;;5095954;28;20743;-58
2023/10/10 05:24:00;;;;;;;9.43;7.43;;;;;;;;;;5094423;28;20441;-58
2023/10/10 05:26:30;;;;;;;7.23;6.53;;;;;;;;;;5093715;28;20482;-58
2023/10/10 05:28:59;;;;;;;8.33;6.90;;;;;;;;;;5093948;28;20854;-58
2023/10/10 05:31:30;;;;;;;7.50;6.80;;;;;;;;;;5093757;28;20451;-56
2023/10/10 05:33:58;;;;;;;7.27;6.67;;;;;;;;;;5093685;28;20447;-58
2023/10/10 05:36:28;;;;;;;8.77;6.93;;;;;;;;;;5093540;28;20458;-59
2023/10/10 05:38:55;;;;;;;7.23;6.53;;;;;;;;;;5093545;28;20518;-58
2023/10/10 05:41:24;;;;;;;8.57;6.60;;;;;;;;;;5093586;28;20477;-58
2023/10/10 05:43:50;;;;;;;9.30;6.23;;;;;;;;;;5093576;28;20880;-58
2023/10/10 05:46:17;;;;;;;8.10;7.17;;;;;;;;;;5093409;28;20537;-57
2023/10/10 05:48:46;;;;;;;8.40;7.20;;;;;;;;;;5093445;28;20533;-58
2023/10/10 05:51:13;;;;;;;10.00;7.73;;;;;;;;;;5092638;28;20469;-58
2023/10/10 05:53:40;;;;;;;9.30;7.83;;;;;;;;;;5093502;28;20869;-58
2023/10/10 05:56:13;;;;;;;10.03;9.00;;;;;;;;;;5093116;28;20451;-57
2023/10/10 05:58:46;;;;;;;8.57;7.67;;;;;;;;;;5093282;28;20447;-58
2023/10/10 06:01:14;;;;;;;8.83;7.37;;;;;;;;;;5093220;28;20468;-58
2023/10/10 06:03:42;;;;;;;12.93;9.23;;;;;;;;;;5093028;28;20450;-57
2023/10/10 06:06:12;;;;;;;9.33;8.40;;;;;;;;;;5093441;28;20443;-58
2023/10/10 06:08:41;;;;;;;13.40;9.23;;;;;;;;;;5093063;28;20545;-58
2023/10/10 06:11:11;;;;;;;10.80;8.50;;;;;;;;;;5093129;28;20794;-58
2023/10/10 06:13:39;;;;;;;9.83;8.10;;;;;;;;;;5093068;28;20447;-58
2023/10/10 06:16:14;;;;;;;9.03;8.13;;;;;;;;;;5092808;28;20816;-58
2023/10/10 06:18:44;;;;;;;8.27;7.30;;;;;;;;;;5093126;28;20542;-57
2023/10/10 06:21:11;;;;;;;8.30;7.27;;;;;;;;;;5092972;28;20454;-58
2023/10/10 06:23:41;;;;;;;10.57;8.50;;;;;;;;;;5092923;28;20861;-58
2023/10/10 06:26:08;;;;;;;10.33;8.33;;;;;;;;;;5092883;28;20443;-58
2023/10/10 06:28:37;;;;;;;10.53;8.70;;;;;;;;;;5092883;28;20525;-58
2023/10/10 06:31:10;;;;;;;10.10;7.80;;;;;;;;;;5093008;28;20469;-57
2023/10/10 06:33:40;;;;;;;9.20;8.17;;;;;;;;;;5093108;28;20867;-57
2023/10/10 06:36:32;;;;;;;14.03;9.80;;;;;;;;;;5092899;28;20446;-58
2023/10/10 06:41:47;;;;;;;10.67;8.73;;;;;;;;;;5092727;28;20465;-58
2023/10/10 06:44:14;;;;;;;10.63;9.23;;;;;;;;;;5092743;28;20492;-58
2023/10/10 06:46:41;;;;;;;11.60;8.97;;;;;;;;;;5092799;28;20554;-58
2023/10/10 06:49:12;;;;;;;14.00;9.83;;;;;;;;;;5092773;28;21009;-57
2023/10/10 06:51:40;;;;;;;15.43;11.50;;;;;;;;;;5092611;28;20478;-58
2023/10/10 06:54:08;;;;;;;12.10;9.40;;;;;;;;;;5092776;28;20451;-57
2023/10/10 06:56:45;;;;;;;11.20;9.53;;;;;;;;;;5092641;28;20533;-58
2023/10/10 06:59:16;;;;;;;11.33;9.13;;;;;;;;;;5092622;28;20975;-58
2023/10/10 07:01:45;;;;;;;9.53;8.53;;;;;;;;;;5093088;28;20972;-58
2023/10/10 07:04:13;;;;;;;10.17;8.63;;;;;;;;;;5096463;28;20852;-58
2023/10/10 07:06:43;;;;;;;10.83;8.33;;;;;;;;;;5096414;28;20446;-58
2023/10/10 07:09:17;;;;;;;11.40;8.50;;;;;;;;;;5096548;28;20802;-58
2023/10/10 07:11:44;;;;;;;9.60;8.10;;;;;;;;;;5096402;28;20447;-58
2023/10/10 07:14:12;;;;;;;10.70;9.27;;;;;;;;;;5096433;28;20475;-58
2023/10/10 07:16:42;;;;;;;12.73;9.33;;;;;;;;;;5096355;28;20446;-58
2023/10/10 07:19:19;;;;;;;10.07;9.07;;;;;;;;;;5096552;28;20450;-59
2023/10/10 07:21:47;;;;;;;9.83;8.20;;;;;;;;;;5096320;28;20442;-58
2023/10/10 07:24:15;;;;;;;12.43;9.07;;;;;;;;;;5096156;28;21067;-57
2023/10/10 07:26:42;;;;;;;11.13;10.03;;;;;;;;;;5096162;28;20791;-58
2023/10/10 07:29:30;;;;;;;9.97;8.90;;;;;;;;;;5095973;28;20446;-58
2023/10/10 07:32:07;;;;;;;9.43;8.47;;;;;;;;;;5096243;28;20446;-58
2023/10/10 07:34:39;;;;;;;12.77;8.87;;;;;;;;;;5096463;28;20832;-57
2023/10/10 07:37:08;;;;;;;9.53;8.53;;;;;;;;;;5096045;28;20453;-58
2023/10/10 07:39:54;;;;;;;9.47;8.23;;;;;;;;;;5095836;28;20443;-58
2023/10/10 07:42:27;;;;;;;11.43;9.60;;;;;;;;;;5095936;28;20470;-58
2023/10/10 07:44:55;;;;;;;10.10;9.07;;;;;;;;;;5095918;28;20443;-58
2023/10/10 07:47:25;;;;;;;10.10;9.00;;;;;;;;;;5095777;28;20446;-56
2023/10/10 07:49:52;;;;;;;8.73;7.83;;;;;;;;;;5095649;28;20447;-58
2023/10/10 07:52:21;;;;;;;11.33;8.80;;;;;;;;;;5095909;28;20459;-58
2023/10/10 07:54:52;;;;;;;11.20;8.40;;;;;;;;;;5095659;28;20443;-58
2023/10/10 07:57:22;;;;;;;8.20;7.40;;;;;;;;;;5095648;28;20494;-58
2023/10/10 07:59:49;;;;;;;8.13;7.33;;;;;;;;;;5095570;28;20783;-58
2023/10/10 08:02:26;;;;;;;7.63;6.90;;;;;;;;;;5095313;28;20572;-58
2023/10/10 08:04:54;;;;;;;10.70;8.10;;;;;;;;;;5095572;28;20442;-58
2023/10/10 08:07:23;;;;;;;8.30;6.50;;;;;;;;;;5095397;28;20466;-58
2023/10/10 08:10:11;;;;;;;9.00;6.30;;;;;;;;;;5095375;28;20508;-58
2023/10/10 08:12:37;;;;;;;7.33;6.70;;;;;;;;;;5095094;28;20830;-58
2023/10/10 08:15:19;;;;;;;7.43;6.73;;;;;;;;;;5094467;28;20546;-58
2023/10/10 08:17:52;;;;;;;8.40;6.73;;;;;;;;;;5094928;28;20960;-57
2023/10/10 08:20:34;;;;;;;10.07;7.60;;;;;;;;;;5095138;28;20447;-58
2023/10/10 08:23:02;;;;;;;7.23;6.53;;;;;;;;;;5094916;28;20476;-58
2023/10/10 08:25:29;;;;;;;8.70;7.23;;;;;;;;;;5094797;28;20450;-58
2023/10/10 08:27:58;;;;;;;7.63;6.57;;;;;;;;;;5095315;28;20810;-59
2023/10/10 08:30:26;;;;;;;8.63;7.53;;;;;;;;;;5095256;28;20449;-58
2023/10/10 08:32:54;;;;;;;6.93;5.60;;;;;;;;;;5094975;28;20452;-58
2023/10/10 08:35:22;;;;;;;6.50;6.00;;;;;;;;;;5094885;28;20526;-58
2023/10/10 08:37:50;;;;;;;5.83;5.27;;;;;;;;;;5094695;28;20443;-58
2023/10/10 08:40:20;;;;;;;6.53;5.77;;;;;;;;;;5094854;28;20442;-57
2023/10/10 08:42:49;;;;;;;5.77;5.27;;;;;;;;;;5094760;28;20495;-58
2023/10/10 08:45:24;;;;;;;6.20;5.60;;;;;;;;;;5094656;28;20442;-58
2023/10/10 08:47:52;;;;;;;5.33;4.93;;;;;;;;;;5094618;28;20445;-58
2023/10/10 08:50:19;;;;;;;5.50;4.97;;;;;;;;;;5094425;28;20836;-57
2023/10/10 08:52:46;;;;;;;6.40;5.40;;;;;;;;;;5094649;28;20543;-58
2023/10/10 08:55:18;;;;;;;7.17;6.47;;;;;;;;;;5094556;28;20446;-58
2023/10/10 08:57:51;;;;;;;4.80;4.37;;;;;;;;;;5094653;28;20946;-57
2023/10/10 09:00:18;;;;;;;4.77;4.40;;;;;;;;;;5094346;28;20850;-58
2023/10/10 09:02:46;;;;;;;5.63;4.90;;;;;;;;;;5094207;28;20489;-58
2023/10/10 09:05:14;;;;;;;5.27;4.50;;;;;;;;;;5094182;28;20442;-58
2023/10/10 09:07:43;;;;;;;5.47;4.23;;;;;;;;;;5094108;28;20474;-58
2023/10/10 09:10:14;;;;;;;5.60;5.10;;;;;;;;;;5094223;28;20450;-58
2023/10/10 09:12:56;;;;;;;4.30;4.00;;;;;;;;;;5094180;28;20825;-58
2023/10/10 09:15:24;;;;;;;4.87;4.47;;;;;;;;;;5094026;28;20810;-58
2023/10/10 09:17:55;;;;;;;5.93;4.17;;;;;;;;;;5094163;28;20533;-58
2023/10/10 09:20:28;;;;;;;5.10;4.53;;;;;;;;;;5094159;28;20447;-58
2023/10/10 09:22:58;;;;;;;4.30;4.00;;;;;;;;;;5094138;28;20571;-58
2023/10/10 09:25:26;;;;;;;4.27;3.83;;;;;;;;;;5092883;28;20538;-58
2023/10/10 09:27:58;;;;;;;4.30;3.90;;;;;;;;;;5093748;28;20439;-59
2023/10/10 09:30:31;;;;;;;4.20;3.90;;;;;;;;;;5093651;28;20926;-59
2023/10/10 09:33:03;;;;;;;3.83;3.40;;;;;;;;;;5093880;28;20457;-58
2023/10/10 09:35:30;;;;;;;3.20;3.00;;;;;;;;;;5093774;28;20540;-58
2023/10/10 09:38:00;;;;;;;3.80;3.33;;;;;;;;;;5093685;28;20438;-58
2023/10/10 09:40:33;;;;;;;3.70;2.90;;;;;;;;;;5093553;28;20442;-59
2023/10/10 09:43:11;;;;;;;3.10;2.90;;;;;;;;;;5093705;28;20504;-58
2023/10/10 09:48:59;;;;;;;2.93;2.70;;;;;;;;;;5093370;28;20441;-59
2023/10/10 09:52:47;;;;;;;4.70;3.10;;;;;;;;;;5093297;28;20529;-58
2023/10/10 09:54:18;;;;;;;5.00;2.63;;;;;;;;;;5093233;28;20458;-58
2023/10/10 09:56:47;;;;;;;3.33;3.03;;;;;;;;;;5093385;28;20443;-58
2023/10/10 09:59:15;;;;;;;2.57;2.37;;;;;;;;;;5093180;28;20447;-59
2023/10/10 10:01:46;;;;;;;4.53;2.17;;;;;;;;;;5093413;28;20450;-58
2023/10/10 10:04:18;;;;;;;2.20;1.70;;;;;;;;;;5093312;28;20478;-58
2023/10/10 10:07:20;;;;;;;3.00;2.53;;;;;;;;;;5093048;28;20929;-58
2023/10/10 10:09:58;;;;;;;2.30;2.10;;;;;;;;;;5093648;28;20529;-58
2023/10/10 10:12:33;;;;;;;2.30;2.20;;;;;;;;;;5093321;28;20857;-57
2023/10/10 10:15:07;;;;;;;2.20;2.00;;;;;;;;;;5093234;28;20450;-58
2023/10/10 10:17:47;;;;;;;3.47;2.30;;;;;;;;;;5093174;28;20926;-58
2023/10/10 10:20:21;;;;;;;2.70;2.40;;;;;;;;;;5093251;28;20446;-58
2023/10/10 10:22:53;;;;;;;3.80;2.10;;;;;;;;;;5093049;28;20502;-59
2023/10/10 10:25:25;;;;;;;13.00;9.23;;;;;;;;;;5093045;28;20442;-58
2023/10/10 10:28:00;;;;;;;3.13;1.90;;;;;;;;;;5093075;28;20446;-59
2023/10/10 10:30:46;;;;;;;2.80;1.40;;;;;;;;;;5092885;28;20450;-58
2023/10/10 10:33:15;;;;;;;2.10;1.90;;;;;;;;;;5093090;28;20457;-59
2023/10/10 10:36:06;;;;;;;1.47;1.37;;;;;;;;;;5092886;28;20545;-58
2023/10/10 10:38:34;;;;;;;4.17;2.00;;;;;;;;;;5096583;28;20508;-59
2023/10/10 10:41:07;;;;;;;2.23;1.60;;;;;;;;;;5097171;28;20445;-59
2023/10/10 10:43:38;;;;;;;1.70;1.50;;;;;;;;;;5097047;28;20532;-58
2023/10/10 10:46:12;;;;;;;3.27;2.10;;;;;;;;;;5096737;28;20921;-59
2023/10/10 10:48:40;;;;;;;5.10;1.80;;;;;;;;;;5097032;28;20481;-58
2023/10/10 10:51:23;;;;;;;2.73;2.17;;;;;;;;;;5096779;28;20450;-58
2023/10/10 10:53:51;;;;;;;2.57;2.00;;;;;;;;;;5096978;28;20442;-58
2023/10/10 10:59:13;;;;;;;4.70;2.10;;;;;;;;;;5096584;28;20806;-58
2023/10/10 11:01:45;;;;;;;4.90;2.10;;;;;;;;;;5096627;28;20454;-58
2023/10/10 11:04:25;;;;;;;1.90;1.80;;;;;;;;;;5096653;28;20474;-59
2023/10/10 11:06:52;;;;;;;2.33;2.13;;;;;;;;;;5096682;28;20829;-58
2023/10/10 11:09:29;;;;;;;2.77;2.57;;;;;;;;;;5096939;28;20442;-58
2023/10/10 11:12:02;;;;;;;1.90;1.80;;;;;;;;;;5096401;28;20449;-59
2023/10/10 11:14:29;;;;;;;3.30;3.00;;;;;;;;;;5096653;28;20858;-59
2023/10/10 11:16:57;;;;;;;2.47;2.27;;;;;;;;;;5096504;28;20470;-58
2023/10/10 11:19:41;;;;;;;2.20;1.93;;;;;;;;;;5096245;28;20929;-58
2023/10/10 11:22:14;;;;;;;1.70;1.60;;;;;;;;;;5096304;28;20443;-58
2023/10/10 11:24:46;;;;;;;2.70;2.30;;;;;;;;;;5096050;28;20576;-58
2023/10/10 11:27:21;;;;;;;2.00;1.80;;;;;;;;;;5096494;28;20851;-58
2023/10/10 11:29:50;;;;;;;2.23;1.90;;;;;;;;;;5096080;28;20936;-59
2023/10/10 11:32:23;;;;;;;5.00;2.20;;;;;;;;;;5095996;28;20941;-58
2023/10/10 11:34:55;;;;;;;2.17;2.07;;;;;;;;;;5095945;28;20921;-58
2023/10/10 11:37:25;;;;;;;2.80;2.20;;;;;;;;;;5096168;28;20534;-58
2023/10/10 11:39:57;;;;;;;2.70;2.17;;;;;;;;;;5096073;28;20607;-58
2023/10/10 11:42:26;;;;;;;2.03;1.60;;;;;;;;;;5095922;28;20465;-59
2023/10/10 11:44:54;;;;;;;1.90;1.80;;;;;;;;;;5095646;28;20486;-59
2023/10/10 11:47:25;;;;;;;4.10;2.53;;;;;;;;;;5095512;28;20997;-58
2023/10/10 11:50:05;;;;;;;2.10;2.00;;;;;;;;;;5094582;28;20839;-57
2023/10/10 11:52:32;;;;;;;2.60;2.40;;;;;;;;;;5095633;28;20442;-58
2023/10/10 11:55:00;;;;;;;2.20;2.07;;;;;;;;;;5095578;28;20450;-58
2023/10/10 11:57:33;;;;;;;2.10;1.83;;;;;;;;;;5095500;28;20856;-58
2023/10/10 12:00:07;;;;;;;2.50;2.30;;;;;;;;;;5095437;28;20482;-58
2023/10/10 12:02:40;;;;;;;2.60;2.10;;;;;;;;;;5095559;28;20443;-58
2023/10/10 12:05:35;;;;;;;2.07;1.97;;;;;;;;;;5095412;28;20478;-58
2023/10/10 12:08:05;;;;;;;2.10;2.00;;;;;;;;;;5095107;28;20528;-58
2023/10/10 12:10:45;;;;;;;12.47;11.23;;;;;;;;;;5095078;28;20450;-58
2023/10/10 12:13:25;;;;;;;16.33;14.73;;;;;;;;;;5095199;28;20450;-58
2023/10/10 12:15:52;;;;;;;2.63;2.17;;;;;;;;;;5095266;28;20965;-58
2023/10/10 12:18:20;;;;;;;1.83;1.73;;;;;;;;;;5094857;28;20533;-58
2023/10/10 12:20:48;;;;;;;1.60;1.50;;;;;;;;;;5094966;28;20523;-58
2023/10/10 12:23:15;;;;;;;1.47;1.37;;;;;;;;;;5095159;28;20529;-58
2023/10/10 12:25:42;;;;;;;1.77;1.67;;;;;;;;;;5095114;28;20453;-58
2023/10/10 12:28:12;;;;;;;1.93;1.73;;;;;;;;;;5094996;28;20442;-58
2023/10/10 12:30:40;;;;;;;2.00;1.80;;;;;;;;;;5094958;28;20465;-58
2023/10/10 12:33:07;;;;;;;1.50;1.40;;;;;;;;;;5094903;28;20805;-59
2023/10/10 12:35:34;;;;;;;1.80;1.70;;;;;;;;;;5095106;28;20443;-58
2023/10/10 12:38:02;;;;;;;3.40;2.20;;;;;;;;;;5095006;28;20496;-58
2023/10/10 12:40:33;;;;;;;2.67;2.07;;;;;;;;;;5094801;28;20779;-58
2023/10/10 12:43:00;;;;;;;1.97;1.87;;;;;;;;;;5094732;28;20447;-58
2023/10/10 12:45:27;;;;;;;2.33;1.67;;;;;;;;;;5094559;28;20489;-58
2023/10/10 12:47:57;;;;;;;2.00;1.80;;;;;;;;;;5094483;28;20496;-58
2023/10/10 12:50:26;;;;;;;2.43;2.00;;;;;;;;;;5094612;28;20451;-58
2023/10/10 12:53:07;;;;;;;2.33;2.13;;;;;;;;;;5094437;28;20446;-58
2023/10/10 12:55:36;;;;;;;1.93;1.80;;;;;;;;;;5094532;28;20865;-58
2023/10/10 12:58:15;;;;;;;2.40;1.90;;;;;;;;;;5094329;28;20529;-58
2023/10/10 13:00:49;;;;;;;1.90;1.80;;;;;;;;;;5094445;28;20541;-58
2023/10/10 13:03:16;;;;;;;2.80;2.10;;;;;;;;;;5094349;28;20847;-58
2023/10/10 13:05:47;;;;;;;2.30;2.10;;;;;;;;;;5094412;28;20449;-58
2023/10/10 13:08:14;;;;;;;2.93;2.27;;;;;;;;;;5094146;28;20553;-58
2023/10/10 13:10:43;;;;;;;2.63;1.87;;;;;;;;;;5094144;28;20447;-58
2023/10/10 13:13:10;;;;;;;3.07;1.87;;;;;;;;;;5094209;28;20504;-58
2023/10/10 13:15:49;;;;;;;3.10;1.87;;;;;;;;;;5093775;28;20489;-58
2023/10/10 13:18:26;;;;;;;2.57;1.93;;;;;;;;;;5093991;28;20507;-58
2023/10/10 13:20:53;;;;;;;2.27;2.17;;;;;;;;;;5093989;28;20470;-58
2023/10/10 13:23:21;;;;;;;2.90;2.43;;;;;;;;;;5093773;28;20452;-58
2023/10/10 13:25:50;;;;;;;2.70;2.50;;;;;;;;;;5094002;28;20450;-58
2023/10/10 13:28:19;;;;;;;4.00;3.70;;;;;;;;;;5093879;28;20564;-58
2023/10/10 13:30:47;;;;;;;3.77;2.47;;;;;;;;;;5093793;28;20434;-58
2023/10/10 13:33:14;;;;;;;2.40;2.20;;;;;;;;;;5093765;28;20444;-59
2023/10/10 13:35:41;;;;;;;4.27;2.60;;;;;;;;;;5093639;28;20474;-58
2023/10/10 13:38:08;;;;;;;5.73;2.83;;;;;;;;;;5093525;28;20484;-58
2023/10/10 13:40:40;;;;;;;3.13;2.50;;;;;;;;;;5093534;28;20447;-58
2023/10/10 13:43:09;;;;;;;4.23;3.20;;;;;;;;;;5093701;28;20534;-59
2023/10/10 13:45:37;;;;;;;3.33;2.60;;;;;;;;;;5093368;28;20861;-58
2023/10/10 13:48:08;;;;;;;2.90;2.70;;;;;;;;;;5093141;28;20445;-58
2023/10/10 13:50:41;;;;;;;3.10;2.80;;;;;;;;;;5093372;28;20534;-58
2023/10/10 13:53:11;;;;;;;2.70;2.27;;;;;;;;;;5093531;28;20801;-58
2023/10/10 13:55:39;;;;;;;2.43;2.33;;;;;;;;;;5093746;28;20600;-58
2023/10/10 13:58:07;;;;;;;2.97;2.67;;;;;;;;;;5093084;28;20961;-58
2023/10/10 14:00:37;;;;;;;2.47;2.37;;;;;;;;;;5092995;28;20497;-58
2023/10/10 14:03:05;;;;;;;3.17;2.87;;;;;;;;;;5093608;28;20446;-58
2023/10/10 14:05:33;;;;;;;2.73;2.53;;;;;;;;;;5093258;28;20531;-59
2023/10/10 14:08:01;;;;;;;2.67;2.57;;;;;;;;;;5092815;28;20501;-58
2023/10/10 14:10:28;;;;;;;7.93;3.10;;;;;;;;;;5093205;28;20541;-58
2023/10/10 14:12:56;;;;;;;5.20;3.60;;;;;;;;;;5092397;28;20537;-58
2023/10/10 14:15:24;;;;;;;8.50;3.40;;;;;;;;;;5092843;28;20438;-58
2023/10/10 14:17:55;;;;;;;3.40;2.93;;;;;;;;;;5093166;28;20458;-58
2023/10/10 14:20:22;;;;;;;2.73;2.30;;;;;;;;;;5093244;28;20813;-59
2023/10/10 14:22:50;;;;;;;8.30;2.63;;;;;;;;;;5093011;28;20447;-58
2023/10/10 14:25:17;;;;;;;1.83;1.73;;;;;;;;;;5092900;28;20486;-58
2023/10/10 14:27:44;;;;;;;2.90;2.40;;;;;;;;;;5092685;28;20992;-58
2023/10/10 14:30:20;;;;;;;3.10;2.90;;;;;;;;;;5092850;28;20449;-58
2023/10/10 14:32:53;;;;;;;3.10;2.27;;;;;;;;;;5093021;28;20434;-58
2023/10/10 14:35:23;;;;;;;2.60;2.40;;;;;;;;;;5092931;28;20442;-57
2023/10/10 14:37:55;;;;;;;2.57;2.30;;;;;;;;;;5092823;28;20447;-57
2023/10/10 14:40:23;;;;;;;3.77;2.10;;;;;;;;;;5092683;28;20442;-58
2023/10/10 14:42:52;;;;;;;2.50;2.40;;;;;;;;;;5092695;28;20933;-58
2023/10/10 14:45:19;;;;;;;3.93;2.20;;;;;;;;;;5092831;28;20482;-58
2023/10/10 14:47:46;;;;;;;3.33;2.13;;;;;;;;;;5092632;28;20529;-58
2023/10/10 14:50:13;;;;;;;3.90;2.53;;;;;;;;;;5092720;28;20454;-58
2023/10/10 14:52:47;;;;;;;5.73;2.40;;;;;;;;;;5092678;28;20525;-58
2023/10/10 14:55:23;;;;;;;1.53;1.43;;;;;;;;;;5092662;28;20443;-58
2023/10/10 14:57:54;;;;;;;1.93;1.83;;;;;;;;;;5092894;28;20494;-58
2023/10/10 15:00:21;;;;;;;2.50;2.33;;;;;;;;;;5092828;28;20445;-58
2023/10/10 15:02:52;;;;;;;3.23;2.30;;;;;;;;;;5092592;28;20443;-60
2023/10/10 15:05:19;;;;;;;1.80;1.70;;;;;;;;;;5092449;28;20475;-58
2023/10/10 15:07:48;;;;;;;2.13;2.03;;;;;;;;;;5092496;28;20473;-58
2023/10/10 15:10:14;;;;;;;2.03;1.93;;;;;;;;;;5092859;28;20538;-58
2023/10/10 15:12:41;;;;;;;2.17;2.07;;;;;;;;;;5092666;28;21016;-60
2023/10/10 15:15:08;;;;;;;2.00;1.90;;;;;;;;;;5092572;28;20448;-58
2023/10/10 15:17:35;;;;;;;2.47;1.97;;;;;;;;;;5092488;28;20438;-58
2023/10/10 15:20:05;;;;;;;1.70;1.60;;;;;;;;;;5092361;28;20478;-59
2023/10/10 15:22:32;;;;;;;1.70;1.60;;;;;;;;;;5092887;28;20443;-59
2023/10/10 15:25:04;;;;;;;3.73;1.93;;;;;;;;;;5096240;28;20481;-58
2023/10/10 15:27:31;;;;;;;3.03;1.70;;;;;;;;;;5096225;28;20499;-59
2023/10/10 15:29:58;;;;;;;2.13;1.80;;;;;;;;;;5096165;28;20438;-59
2023/10/10 15:32:25;;;;;;;2.53;1.80;;;;;;;;;;5095909;28;20511;-59
2023/10/10 15:34:52;;;;;;;4.80;2.00;;;;;;;;;;5096213;28;20525;-58
2023/10/10 15:37:22;;;;;;;2.03;1.90;;;;;;;;;;5096066;28;20511;-59
2023/10/10 15:39:49;;;;;;;2.13;1.93;;;;;;;;;;5096085;28;20941;-58
2023/10/10 15:42:18;;;;;;;1.60;1.50;;;;;;;;;;5095907;28;20438;-58
2023/10/10 15:44:46;;;;;;;3.13;2.20;;;;;;;;;;5095815;28;20485;-58
2023/10/10 15:47:14;;;;;;;2.17;1.70;;;;;;;;;;5095814;28;20442;-59
2023/10/10 15:49:41;;;;;;;6.03;2.20;;;;;;;;;;5095975;28;20447;-59
2023/10/10 15:52:08;;;;;;;2.13;2.03;;;;;;;;;;5095879;28;20451;-59
2023/10/10 15:54:35;;;;;;;2.53;2.37;;;;;;;;;;5095846;28;20531;-59
2023/10/10 15:57:05;;;;;;;2.40;2.10;;;;;;;;;;5095739;28;20453;-58
2023/10/10 15:59:33;;;;;;;2.10;2.00;;;;;;;;;;5095543;28;20469;-58
2023/10/10 16:02:00;;;;;;;2.33;2.13;;;;;;;;;;5095746;28;20450;-59
2023/10/10 16:04:27;;;;;;;2.53;2.33;;;;;;;;;;5095310;28;20446;-58
2023/10/10 16:06:55;;;;;;;2.73;2.53;;;;;;;;;;5095337;28;20474;-59
2023/10/10 16:09:29;;;;;;;2.17;2.03;;;;;;;;;;5095458;28;20538;-58
2023/10/10 16:11:56;;;;;;;2.37;2.17;;;;;;;;;;5095331;28;20555;-59
2023/10/10 16:14:24;;;;;;;3.57;3.13;;;;;;;;;;5095552;28;20469;-58
2023/10/10 16:16:52;;;;;;;2.40;2.30;;;;;;;;;;5095454;28;20520;-59
2023/10/10 16:19:20;;;;;;;2.33;2.23;;;;;;;;;;5095325;28;20530;-59
2023/10/10 16:21:47;;;;;;;4.23;2.27;;;;;;;;;;5095389;28;20478;-58
2023/10/10 16:24:15;;;;;;;3.43;2.20;;;;;;;;;;5095136;28;20465;-58
2023/10/10 16:26:42;;;;;;;4.20;2.10;;;;;;;;;;5094936;28;20454;-59
2023/10/10 16:29:11;;;;;;;2.40;2.20;;;;;;;;;;5095132;28;20541;-59
2023/10/10 16:31:43;;;;;;;2.17;2.07;;;;;;;;;;5095129;28;20443;-59
2023/10/10 16:34:11;;;;;;;2.53;2.40;;;;;;;;;;5094653;28;20511;-59
2023/10/10 16:36:38;;;;;;;2.63;2.43;;;;;;;;;;5094725;28;20447;-59
2023/10/10 16:39:09;;;;;;;2.30;2.10;;;;;;;;;;5094812;28;20450;-59
2023/10/10 16:41:37;;;;;;;2.53;2.33;;;;;;;;;;5095019;28;20538;-58
2023/10/10 16:44:04;;;;;;;3.40;2.70;;;;;;;;;;5094845;28;20446;-59
2023/10/10 16:46:31;;;;;;;5.00;3.50;;;;;;;;;;5094681;28;20868;-58
2023/10/10 16:48:58;;;;;;;3.30;3.10;;;;;;;;;;5094734;28;20848;-58
2023/10/10 16:51:31;;;;;;;3.10;2.90;;;;;;;;;;5094722;28;20529;-58
2023/10/10 16:53:58;;;;;;;4.40;3.10;;;;;;;;;;5094581;28;20924;-58
2023/10/10 16:56:26;;;;;;;2.73;2.50;;;;;;;;;;5094634;28;20449;-58